createdAt,value
2019-02-26T00:00:47.315Z,2.20
2019-02-26T00:03:24.024Z,2.30
2019-02-26T00:06:27.918Z,2.20
2019-02-26T00:09:01.925Z,2.20
2019-02-26T00:12:05.060Z,2.20
2019-02-26T00:14:34.639Z,2.20
2019-02-26T00:19:57.833Z,2.20
2019-02-26T00:24:02.778Z,2.20
2019-02-26T00:25:51.949Z,2.20
2019-02-26T00:28:19.756Z,2.20
2019-02-26T00:31:06.093Z,2.20
2019-02-26T00:33:34.287Z,2.20
2019-02-26T00:36:27.032Z,2.20
2019-02-26T00:39:11.166Z,2.20
2019-02-26T00:41:53.269Z,2.20
2019-02-26T00:44:27.346Z,2.20
2019-02-26T00:47:13.265Z,2.20
2019-02-26T00:52:49.070Z,2.30
2019-02-26T00:55:34.887Z,2.30
2019-02-26T00:58:10.679Z,2.30
2019-02-26T01:00:36.781Z,2.30
2019-02-26T01:03:18.515Z,2.30
2019-02-26T01:05:50.667Z,2.40
2019-02-26T01:11:27.900Z,2.40
2019-02-26T01:19:58.865Z,2.60
2019-02-26T01:22:46.594Z,2.50
2019-02-26T01:25:38.169Z,2.50
2019-02-26T01:28:16.059Z,2.50
2019-02-26T01:30:48.935Z,2.60
2019-02-26T01:33:32.057Z,2.60
2019-02-26T01:42:18.090Z,2.70
2019-02-26T01:48:04.506Z,2.60
2019-02-26T01:54:05.257Z,2.70
2019-02-26T01:56:42.683Z,2.80
2019-02-26T01:59:33.833Z,2.80
2019-02-26T02:02:12.154Z,2.80
2019-02-26T02:05:02.399Z,2.70
2019-02-26T02:07:30.099Z,2.70
2019-02-26T02:10:03.293Z,2.80
2019-02-26T02:12:36.854Z,2.80
2019-02-26T02:15:10.120Z,2.80
2019-02-26T02:17:41.244Z,2.80
2019-02-26T02:20:21.328Z,2.80
2019-02-26T02:22:46.726Z,2.80
2019-02-26T02:25:20.678Z,2.80
2019-02-26T02:27:59.330Z,2.80
2019-02-26T02:30:41.253Z,2.80
2019-02-26T02:33:17.222Z,2.70
2019-02-26T02:35:48.681Z,2.70
2019-02-26T02:38:22.850Z,2.70
2019-02-26T02:43:48.692Z,2.70
2019-02-26T02:46:28.137Z,2.70
2019-02-26T02:49:41.761Z,2.70
2019-02-26T02:51:49.220Z,2.70
2019-02-26T02:54:20.935Z,2.70
2019-02-26T02:57:10.005Z,2.70
2019-02-26T02:59:42.436Z,2.70
2019-02-26T03:02:37.662Z,2.70
2019-02-26T03:05:13.873Z,2.70
2019-02-26T03:07:50.341Z,2.70
2019-02-26T03:10:15.499Z,2.70
2019-02-26T03:12:52.182Z,2.70
2019-02-26T03:15:21.905Z,2.70
2019-02-26T03:17:59.663Z,2.70
2019-02-26T03:20:39.253Z,2.70
2019-02-26T03:23:13.122Z,2.70
2019-02-26T03:25:44.547Z,2.70
2019-02-26T03:28:19.959Z,2.70
2019-02-26T03:30:51.773Z,2.70
2019-02-26T03:33:25.949Z,2.70
2019-02-26T03:35:57.583Z,2.80
2019-02-26T03:38:31.890Z,2.80
2019-02-26T03:41:13.431Z,2.80
2019-02-26T03:47:22.214Z,2.80
2019-02-26T03:49:56.102Z,2.80
2019-02-26T03:52:28.955Z,2.90
2019-02-26T03:55:06.809Z,2.90
2019-02-26T03:57:40.914Z,2.90
2019-02-26T04:00:17.398Z,2.90
2019-02-26T04:02:51.537Z,2.90
2019-02-26T04:05:29.460Z,3.00
2019-02-26T04:08:12.856Z,3.10
2019-02-26T04:13:45.897Z,3.10
2019-02-26T04:17:08.929Z,3.10
2019-02-26T04:19:08.807Z,3.10
2019-02-26T04:22:15.245Z,3.10
2019-02-26T04:28:25.102Z,3.10
2019-02-26T04:31:03.266Z,3.00
2019-02-26T04:43:36.152Z,3.00
2019-02-26T04:46:14.590Z,2.90
2019-02-26T04:52:02.993Z,2.90
2019-02-26T04:54:54.292Z,2.80
2019-02-26T05:00:16.014Z,2.70
2019-02-26T05:03:00.954Z,2.80
2019-02-26T05:05:37.128Z,2.70
2019-02-26T05:08:37.648Z,2.80
2019-02-26T05:11:03.297Z,2.80
2019-02-26T05:13:40.988Z,2.80
2019-02-26T05:16:13.622Z,2.70
2019-02-26T05:18:58.303Z,2.70
2019-02-26T05:22:01.621Z,2.70
2019-02-26T05:27:26.133Z,2.60
2019-02-26T05:29:57.659Z,2.60
2019-02-26T05:32:30.771Z,2.50
2019-02-26T05:35:00.495Z,2.50
2019-02-26T05:37:34.799Z,2.50
2019-02-26T05:40:07.097Z,2.40
2019-02-26T05:42:38.952Z,2.40
2019-02-26T05:45:10.231Z,2.30
2019-02-26T05:47:45.410Z,2.30
2019-02-26T05:50:16.597Z,2.30
2019-02-26T05:52:44.571Z,2.30
2019-02-26T05:55:17.587Z,2.20
2019-02-26T05:57:47.540Z,2.30
2019-02-26T06:00:28.508Z,2.30
2019-02-26T06:03:07.203Z,2.30
2019-02-26T06:05:48.940Z,2.30
2019-02-26T06:08:15.957Z,2.30
2019-02-26T06:10:47.556Z,2.30
2019-02-26T06:13:16.294Z,2.30
2019-02-26T06:15:45.216Z,2.30
2019-02-26T06:18:25.784Z,2.30
2019-02-26T06:20:58.455Z,2.30
2019-02-26T06:23:31.105Z,2.40
2019-02-26T06:26:38.136Z,2.40
2019-02-26T06:29:11.232Z,2.40
2019-02-26T06:31:45.088Z,2.40
2019-02-26T06:37:25.503Z,2.60
2019-02-26T06:40:00.477Z,2.70
2019-02-26T06:42:28.320Z,2.80
2019-02-26T06:44:58.412Z,2.90
2019-02-26T06:47:29.305Z,3.00
2019-02-26T06:49:58.958Z,3.10
2019-02-26T06:52:29.902Z,3.10
2019-02-26T06:55:00.214Z,3.20
2019-02-26T06:57:28.635Z,3.30
2019-02-26T07:00:00.662Z,3.40
2019-02-26T07:02:29.021Z,3.50
2019-02-26T07:04:58.020Z,3.70
2019-02-26T07:07:26.754Z,3.80
2019-02-26T07:09:57.424Z,3.90
2019-02-26T07:12:45.543Z,3.90
2019-02-26T07:15:00.163Z,3.90
2019-02-26T07:17:36.189Z,4.10
2019-02-26T07:20:09.179Z,4.20
2019-02-26T07:22:41.500Z,4.40
2019-02-26T07:25:13.975Z,4.60
2019-02-26T07:27:42.821Z,4.70
2019-02-26T07:30:13.194Z,4.90
2019-02-26T07:32:45.121Z,5.50
2019-02-26T07:35:15.950Z,6.50
2019-02-26T07:37:49.040Z,7.90
2019-02-26T07:40:35.919Z,9.40
2019-02-26T07:43:22.636Z,10.10
2019-02-26T07:45:58.136Z,11.40
2019-02-26T07:48:28.943Z,11.60
2019-02-26T07:51:02.911Z,11.80
2019-02-26T07:53:42.053Z,13.00
2019-02-26T07:56:13.849Z,14.70
2019-02-26T08:05:40.100Z,16.70
2019-02-26T08:08:29.898Z,15.80
2019-02-26T08:11:08.376Z,15.30
2019-02-26T08:13:46.059Z,16.10
2019-02-26T08:16:30.839Z,17.10
2019-02-26T08:19:13.641Z,17.90
2019-02-26T08:25:03.300Z,17.60
2019-02-26T08:28:03.883Z,16.40
2019-02-26T08:30:50.591Z,15.90
2019-02-26T08:36:46.228Z,15.50
2019-02-26T08:39:18.944Z,16.30
2019-02-26T08:45:26.015Z,17.20
2019-02-26T08:48:17.136Z,17.80
2019-02-26T08:51:00.764Z,17.70
2019-02-26T08:54:10.457Z,18.70
2019-02-26T08:56:52.758Z,17.90
2019-02-26T09:02:37.111Z,17.00
2019-02-26T09:05:33.862Z,17.10
2019-02-26T09:08:18.924Z,17.20
2019-02-26T09:13:59.518Z,16.50
2019-02-26T09:16:40.667Z,16.20
2019-02-26T09:21:55.043Z,17.20
2019-02-26T09:24:26.385Z,18.50
2019-02-26T09:26:57.567Z,20.00
2019-02-26T09:29:25.736Z,19.30
2019-02-26T09:31:54.604Z,19.40
2019-02-26T09:34:25.972Z,19.20
2019-02-26T09:37:00.148Z,19.10
2019-02-26T09:39:29.423Z,18.80
2019-02-26T09:42:01.239Z,18.00
2019-02-26T09:44:35.909Z,17.80
2019-02-26T09:47:11.578Z,17.90
2019-02-26T09:49:47.829Z,17.20
2019-02-26T09:52:19.022Z,18.00
2019-02-26T09:54:51.148Z,18.30
2019-02-26T09:57:26.316Z,19.20
2019-02-26T10:00:03.204Z,19.10
2019-02-26T10:02:28.797Z,18.80
2019-02-26T10:04:57.898Z,19.10
2019-02-26T10:07:28.911Z,19.40
2019-02-26T10:10:05.947Z,19.80
2019-02-26T10:12:39.266Z,20.50
2019-02-26T10:15:12.606Z,19.90
2019-02-26T10:17:42.826Z,19.70
2019-02-26T10:20:18.209Z,19.30
2019-02-26T10:22:53.089Z,20.50
2019-02-26T10:25:23.354Z,20.10
2019-02-26T10:27:52.539Z,19.10
2019-02-26T10:30:22.219Z,19.20
2019-02-26T10:32:51.086Z,19.90
2019-02-26T10:35:32.458Z,19.70
2019-02-26T10:38:00.422Z,20.20
2019-02-26T10:40:35.371Z,19.60
2019-02-26T10:43:00.121Z,19.80
2019-02-26T10:45:30.085Z,19.50
2019-02-26T10:48:01.424Z,19.20
2019-02-26T10:50:32.276Z,18.80
2019-02-26T10:53:07.193Z,19.00
2019-02-26T10:55:38.326Z,19.70
2019-02-26T10:58:06.926Z,18.80
2019-02-26T11:00:35.390Z,19.10
2019-02-26T11:03:03.740Z,19.50
2019-02-26T11:05:32.522Z,19.30
2019-02-26T11:08:04.779Z,19.30
2019-02-26T11:10:32.062Z,19.60
2019-02-26T11:13:00.967Z,18.90
2019-02-26T11:15:33.254Z,18.60
2019-02-26T11:18:00.108Z,16.90
2019-02-26T11:20:30.849Z,16.60
2019-02-26T11:23:04.124Z,16.60
2019-02-26T11:25:36.998Z,17.80
2019-02-26T11:28:07.357Z,18.10
2019-02-26T11:30:37.030Z,18.30
2019-02-26T11:33:08.045Z,19.30
2019-02-26T11:35:36.364Z,18.60
2019-02-26T11:38:05.155Z,17.40
2019-02-26T11:40:33.917Z,16.90
2019-02-26T11:43:11.268Z,16.90
2019-02-26T11:45:35.185Z,16.90
2019-02-26T11:48:08.769Z,16.50
2019-02-26T11:50:38.828Z,16.40
2019-02-26T11:53:09.883Z,16.80
2019-02-26T11:55:39.142Z,18.00
2019-02-26T11:58:10.278Z,17.90
2019-02-26T12:00:44.494Z,16.30
2019-02-26T12:03:12.330Z,15.20
2019-02-26T12:05:44.146Z,15.90
2019-02-26T12:08:19.099Z,16.10
2019-02-26T12:10:52.258Z,16.40
2019-02-26T12:13:24.914Z,16.50
2019-02-26T12:15:54.511Z,15.80
2019-02-26T12:18:46.943Z,16.00
2019-02-26T12:24:43.060Z,16.00
2019-02-26T12:27:52.964Z,15.90
2019-02-26T12:30:25.750Z,15.40
2019-02-26T12:32:56.347Z,14.50
2019-02-26T12:35:25.159Z,14.00
2019-02-26T12:37:58.860Z,14.00
2019-02-26T12:40:27.961Z,14.10
2019-02-26T12:43:34.044Z,14.10
2019-02-26T12:46:05.428Z,14.10
2019-02-26T12:48:37.878Z,14.00
2019-02-26T12:51:08.255Z,14.40
2019-02-26T12:53:55.082Z,14.60
2019-02-26T12:56:24.845Z,14.30
2019-02-26T12:58:56.191Z,14.20
2019-02-26T13:01:25.614Z,14.30
2019-02-26T13:03:55.613Z,14.20
2019-02-26T13:06:24.506Z,15.40
2019-02-26T13:08:59.119Z,15.30
2019-02-26T13:11:30.877Z,14.80
2019-02-26T13:13:59.785Z,14.30
2019-02-26T13:16:35.923Z,14.60
2019-02-26T13:19:12.872Z,14.50
2019-02-26T13:21:47.257Z,14.50
2019-02-26T13:24:21.397Z,13.60
2019-02-26T13:26:54.361Z,12.80
2019-02-26T13:29:25.898Z,12.50
2019-02-26T13:31:57.178Z,12.30
2019-02-26T13:34:26.111Z,12.10
2019-02-26T13:37:02.130Z,11.90
2019-02-26T13:44:35.879Z,11.60
2019-02-26T13:47:04.635Z,11.20
2019-02-26T13:49:33.597Z,11.00
2019-02-26T13:52:02.328Z,11.00
2019-02-26T13:54:32.767Z,10.90
2019-02-26T13:57:09.263Z,10.90
2019-02-26T13:59:41.706Z,11.50
2019-02-26T14:02:13.799Z,12.50
2019-02-26T14:04:44.087Z,12.80
2019-02-26T14:07:34.792Z,12.40
2019-02-26T14:10:04.264Z,12.60
2019-02-26T14:12:33.076Z,13.00
2019-02-26T14:15:03.726Z,13.00
2019-02-26T14:17:32.272Z,13.50
2019-02-26T14:20:00.970Z,13.40
2019-02-26T14:22:29.688Z,13.80
2019-02-26T14:24:58.502Z,13.50
2019-02-26T14:27:27.314Z,12.70
2019-02-26T14:30:00.418Z,12.50
2019-02-26T14:32:31.226Z,12.50
2019-02-26T14:35:12.122Z,12.10
2019-02-26T14:37:44.860Z,12.20
2019-02-26T14:40:18.591Z,12.40
2019-02-26T14:42:47.461Z,12.40
2019-02-26T14:45:31.096Z,12.70
2019-02-26T14:48:09.932Z,13.30
2019-02-26T14:50:37.857Z,13.30
2019-02-26T14:53:08.263Z,13.40
2019-02-26T14:55:37.112Z,13.10
2019-02-26T14:58:06.001Z,12.80
2019-02-26T15:00:35.777Z,12.40
2019-02-26T15:03:08.949Z,11.90
2019-02-26T15:05:37.135Z,11.30
2019-02-26T15:08:05.888Z,10.80
2019-02-26T15:10:34.718Z,10.50
2019-02-26T15:13:03.386Z,10.40
2019-02-26T15:15:32.285Z,10.40
2019-02-26T15:18:03.386Z,10.20
2019-02-26T15:20:32.336Z,10.20
2019-02-26T15:23:01.380Z,10.20
2019-02-26T15:25:45.164Z,10.10
2019-02-26T15:28:13.939Z,10.00
2019-02-26T15:30:45.571Z,9.90
2019-02-26T15:33:17.596Z,9.90
2019-02-26T15:35:47.546Z,9.90
2019-02-26T15:38:16.270Z,9.80
2019-02-26T15:40:47.391Z,9.70
2019-02-26T15:43:15.727Z,9.60
2019-02-26T15:45:51.729Z,9.60
2019-02-26T15:48:15.142Z,9.60
2019-02-26T15:50:44.087Z,9.50
2019-02-26T15:53:15.328Z,9.50
2019-02-26T15:55:44.396Z,9.40
2019-02-26T15:58:13.229Z,9.30
2019-02-26T16:00:46.605Z,9.30
2019-02-26T16:03:15.693Z,9.20
2019-02-26T16:05:47.749Z,9.10
2019-02-26T16:08:16.696Z,9.00
2019-02-26T16:10:51.660Z,9.00
2019-02-26T16:13:20.507Z,8.90
2019-02-26T16:15:53.909Z,8.80
2019-02-26T16:18:23.796Z,8.70
2019-02-26T16:20:57.040Z,8.70
2019-02-26T16:23:25.914Z,8.60
2019-02-26T16:25:54.801Z,8.60
2019-02-26T16:28:33.501Z,8.50
2019-02-26T16:31:02.352Z,8.50
2019-02-26T16:33:34.279Z,8.40
2019-02-26T16:36:03.216Z,8.30
2019-02-26T16:38:32.366Z,8.30
2019-02-26T16:41:02.794Z,8.30
2019-02-26T16:43:31.546Z,8.30
2019-02-26T16:46:00.460Z,8.20
2019-02-26T16:48:29.248Z,8.20
2019-02-26T16:50:58.480Z,8.10
2019-02-26T16:53:27.276Z,8.10
2019-02-26T16:55:56.209Z,8.10
2019-02-26T16:58:25.072Z,8.10
2019-02-26T17:00:54.063Z,8.10
2019-02-26T17:03:22.800Z,8.00
2019-02-26T17:05:51.509Z,8.00
2019-02-26T17:08:20.177Z,7.90
2019-02-26T17:10:48.994Z,7.90
2019-02-26T17:13:17.804Z,7.80
2019-02-26T17:15:46.743Z,7.80
2019-02-26T17:18:16.205Z,7.70
2019-02-26T17:20:45.383Z,7.60
2019-02-26T17:23:14.544Z,7.60
2019-02-26T17:25:43.402Z,7.60
2019-02-26T17:28:12.850Z,7.60
2019-02-26T17:30:41.748Z,7.50
2019-02-26T17:33:13.209Z,7.50
2019-02-26T17:35:41.156Z,7.40
2019-02-26T17:38:09.977Z,7.40
2019-02-26T17:40:38.888Z,7.40
2019-02-26T17:43:13.360Z,7.40
2019-02-26T17:45:44.670Z,7.40
2019-02-26T17:48:17.163Z,7.30
2019-02-26T17:50:51.635Z,7.30
2019-02-26T17:55:55.110Z,7.30
2019-02-26T17:58:24.014Z,7.20
2019-02-26T18:00:56.673Z,7.20
2019-02-26T18:03:28.345Z,7.10
2019-02-26T18:05:57.141Z,7.20
2019-02-26T18:08:26.171Z,7.00
2019-02-26T18:10:55.111Z,7.10
2019-02-26T18:13:24.131Z,7.00
2019-02-26T18:15:56.028Z,7.00
2019-02-26T18:18:23.189Z,7.00
2019-02-26T18:20:52.027Z,7.00
2019-02-26T18:23:21.060Z,6.90
2019-02-26T18:25:49.926Z,6.90
2019-02-26T18:28:18.869Z,6.90
2019-02-26T18:30:47.784Z,6.80
2019-02-26T18:33:16.625Z,6.80
2019-02-26T18:35:45.491Z,6.70
2019-02-26T18:38:14.307Z,6.70
2019-02-26T18:40:46.081Z,6.70
2019-02-26T18:43:16.489Z,6.70
2019-02-26T18:46:00.423Z,6.60
2019-02-26T18:48:27.447Z,6.60
2019-02-26T18:50:56.312Z,6.50
2019-02-26T18:53:25.054Z,6.50
2019-02-26T18:55:53.945Z,6.50
2019-02-26T18:58:22.967Z,6.40
2019-02-26T19:00:51.825Z,6.40
2019-02-26T19:03:20.556Z,6.40
2019-02-26T19:06:03.513Z,6.40
2019-02-26T19:08:30.033Z,6.30
2019-02-26T19:11:03.730Z,6.20
2019-02-26T19:13:35.655Z,6.20
2019-02-26T19:16:07.259Z,6.20
2019-02-26T19:18:38.500Z,6.10
2019-02-26T19:21:13.630Z,6.10
2019-02-26T19:23:44.485Z,6.10
2019-02-26T19:26:14.311Z,6.10
2019-02-26T19:28:44.872Z,6.00
2019-02-26T19:31:13.796Z,6.00
2019-02-26T19:33:45.574Z,6.00
2019-02-26T19:36:14.602Z,5.90
2019-02-26T19:38:44.582Z,5.90
2019-02-26T19:41:45.282Z,5.90
2019-02-26T19:44:31.098Z,5.80
2019-02-26T19:46:51.336Z,5.80
2019-02-26T19:49:20.280Z,5.70
2019-02-26T19:51:49.432Z,5.70
2019-02-26T19:54:18.354Z,5.70
2019-02-26T19:56:47.224Z,5.60
2019-02-26T19:59:16.186Z,5.60
2019-02-26T20:01:45.813Z,5.70
2019-02-26T20:04:14.851Z,5.70
2019-02-26T20:06:43.682Z,5.60
2019-02-26T20:09:12.550Z,5.60
2019-02-26T20:11:41.504Z,5.50
2019-02-26T20:14:11.653Z,5.50
2019-02-26T20:16:40.800Z,5.50
2019-02-26T20:19:09.728Z,5.40
2019-02-26T20:21:38.551Z,5.40
2019-02-26T20:24:07.420Z,5.30
2019-02-26T20:26:39.106Z,5.30
2019-02-26T20:29:08.406Z,5.30
2019-02-26T20:31:38.426Z,5.30
2019-02-26T20:34:07.382Z,5.30
2019-02-26T20:36:40.312Z,5.20
2019-02-26T20:39:09.138Z,5.10
2019-02-26T20:44:45.223Z,5.00
2019-02-26T20:47:14.405Z,5.00
2019-02-26T20:49:47.506Z,5.00
2019-02-26T20:52:16.495Z,5.00
2019-02-26T20:54:45.382Z,5.00
2019-02-26T20:57:14.379Z,4.90
2019-02-26T20:59:43.192Z,4.90
2019-02-26T21:02:17.770Z,4.80
2019-02-26T21:04:46.760Z,4.80
2019-02-26T21:07:15.485Z,4.80
2019-02-26T21:09:44.394Z,4.80
2019-02-26T21:12:15.759Z,4.90
2019-02-26T21:14:44.521Z,4.90
2019-02-26T21:17:13.296Z,4.80
2019-02-26T21:19:42.184Z,4.80
2019-02-26T21:22:12.957Z,4.80
2019-02-26T21:24:41.410Z,4.70
2019-02-26T21:27:10.265Z,4.70
2019-02-26T21:29:41.044Z,4.70
2019-02-26T21:32:09.563Z,4.70
2019-02-26T21:34:39.796Z,4.60
2019-02-26T21:37:08.775Z,4.60
2019-02-26T21:39:43.541Z,4.60
2019-02-26T21:42:10.642Z,4.60
2019-02-26T21:44:41.693Z,4.60
2019-02-26T21:47:10.129Z,4.60
2019-02-26T21:49:41.199Z,4.60
2019-02-26T21:52:11.124Z,4.50
2019-02-26T21:55:01.226Z,4.50
2019-02-26T21:57:30.545Z,4.50
2019-02-26T21:59:59.576Z,4.50
2019-02-26T22:02:31.628Z,4.50
2019-02-26T22:05:05.065Z,4.40
2019-02-26T22:07:32.455Z,4.40
2019-02-26T22:10:01.183Z,4.30
2019-02-26T22:12:30.229Z,4.30
2019-02-26T22:14:59.003Z,4.30
2019-02-26T22:17:27.898Z,4.30
2019-02-26T22:19:56.688Z,4.20
2019-02-26T22:22:26.229Z,4.20
2019-02-26T22:24:55.779Z,4.10
2019-02-26T22:27:24.588Z,4.10
2019-02-26T22:29:53.337Z,4.10
2019-02-26T22:32:22.149Z,4.10
2019-02-26T22:34:53.608Z,4.00
2019-02-26T22:37:21.524Z,3.90
2019-02-26T22:39:50.339Z,3.90
2019-02-26T22:42:19.423Z,3.90
2019-02-26T22:44:48.181Z,3.90
2019-02-26T22:47:17.110Z,3.90
2019-02-26T22:49:48.794Z,4.00
2019-02-26T22:52:17.481Z,3.90
2019-02-26T22:54:46.241Z,3.90
2019-02-26T22:57:15.137Z,3.90
2019-02-26T22:59:44.071Z,3.80
2019-02-26T23:02:13.186Z,3.80
2019-02-26T23:04:41.923Z,3.70
2019-02-26T23:07:10.796Z,3.70
2019-02-26T23:09:39.508Z,3.80
2019-02-26T23:12:08.941Z,3.80
2019-02-26T23:14:38.826Z,3.80
2019-02-26T23:17:09.112Z,3.70
2019-02-26T23:19:39.439Z,3.70
2019-02-26T23:22:08.508Z,3.80
2019-02-26T23:24:37.497Z,3.70
2019-02-26T23:27:07.096Z,3.70
2019-02-26T23:29:37.903Z,3.70
2019-02-26T23:32:07.881Z,3.70
2019-02-26T23:34:36.671Z,3.70
2019-02-26T23:37:06.133Z,3.60
2019-02-26T23:39:34.900Z,3.60
2019-02-26T23:42:05.953Z,3.60
2019-02-26T23:44:34.255Z,3.60
2019-02-26T23:47:02.962Z,3.60
2019-02-26T23:49:31.841Z,3.50
2019-02-26T23:52:00.653Z,3.50
2019-02-26T23:54:29.429Z,3.50
2019-02-26T23:56:58.427Z,3.50
2019-02-26T23:59:27.157Z,3.40
